Time;durP1;ratioP1;P1;durP2;ratioP2;P2;SDS_P1;SDS_P2;PMS_P1;PMS_P2;Temp;Humidity;BMP_temperature;BMP_pressure;BME280_temperature;BME280_humidity;BME280_pressure;Samples;Min_cycle;Max_cycle;Signal;HPM_P1;HPM_P2
2021/07/25 00:02:27;;;;;;;1.62;1.50;;;;;;;15.33;74.89;99700.28;1769020;80;20100;-75
2021/07/25 00:04:54;;;;;;;4.22;1.65;;;;;;;15.30;74.82;99699.17;1764091;80;21458;-75
2021/07/25 00:07:20;;;;;;;3.25;1.98;;;;;;;15.26;74.83;99695.05;1758705;80;21071;-72
2021/07/25 00:09:47;;;;;;;2.85;1.40;;;;;;;15.24;74.87;99692.18;1759662;80;20918;-76
2021/07/25 00:12:13;;;;;;;3.90;1.43;;;;;;;15.22;75.03;99689.64;1764322;80;21119;-75
2021/07/25 00:14:40;;;;;;;2.07;1.63;;;;;;;15.21;75.06;99688.80;1760848;80;21582;-75
2021/07/25 00:17:07;;;;;;;3.67;1.83;;;;;;;15.20;75.10;99683.63;1766036;80;21111;-75
2021/07/25 00:19:35;;;;;;;3.72;2.08;;;;;;;15.20;75.21;99687.58;1759883;80;20927;-75
2021/07/25 00:22:04;;;;;;;5.60;1.72;;;;;;;15.19;75.22;99689.84;1764938;80;21560;-75
2021/07/25 00:24:34;;;;;;;3.20;1.80;;;;;;;15.16;75.21;99687.42;1767770;80;20906;-72
2021/07/25 00:27:00;;;;;;;2.02;1.52;;;;;;;15.10;75.22;99681.27;1761222;81;20935;-75
2021/07/25 00:29:32;;;;;;;4.70;2.27;;;;;;;15.07;75.22;99688.02;1770446;80;21053;-76
2021/07/25 00:32:04;;;;;;;4.55;2.15;;;;;;;15.03;75.33;99678.66;1772266;80;20903;-76
2021/07/25 00:34:35;;;;;;;5.55;2.10;;;;;;;14.99;75.40;99673.61;1765471;80;21034;-75
2021/07/25 00:37:03;;;;;;;4.28;1.95;;;;;;;14.96;75.53;99681.70;1767924;80;21048;-75
2021/07/25 00:39:30;;;;;;;2.77;2.10;;;;;;;14.94;75.57;99677.01;1770637;79;21052;-75
2021/07/25 00:41:57;;;;;;;2.85;2.22;;;;;;;14.92;75.69;99677.57;1777589;79;22235;-75
2021/07/25 00:44:23;;;;;;;7.20;2.10;;;;;;;14.89;75.69;99672.52;1784887;79;21576;-76
2021/07/25 00:46:59;;;;;;;4.53;2.60;;;;;;;14.86;75.86;99664.84;1782414;79;21666;-76
2021/07/25 00:49:28;;;;;;;3.65;2.15;;;;;;;14.88;76.16;99665.59;1763799;80;21064;-76
2021/07/25 00:51:55;;;;;;;6.17;2.50;;;;;;;14.89;76.08;99663.80;1745066;80;21609;-76
2021/07/25 00:54:23;;;;;;;3.95;2.65;;;;;;;14.92;76.30;99663.59;1772678;80;21032;-75
2021/07/25 00:56:50;;;;;;;5.35;2.83;;;;;;;14.96;76.38;99665.93;1780111;78;21555;-76
2021/07/25 00:59:16;;;;;;;6.97;3.95;;;;;;;15.03;76.37;99668.98;1801645;77;20949;-76
2021/07/25 01:01:43;;;;;;;4.47;2.87;;;;;;;15.11;76.39;99666.69;1796110;78;20924;-75
2021/07/25 01:04:50;;;;;;;6.37;3.20;;;;;;;15.18;76.33;99669.77;1799577;78;21031;-76
2021/07/25 01:07:22;;;;;;;;;;;;;;;15.23;76.41;99666.33;1799763;78;21514;-76
2021/07/25 01:10:06;;;;;;;4.55;2.47;;;;;;;15.29;76.60;99660.68;1797306;78;20123;-75
2021/07/25 01:12:49;;;;;;;3.15;2.58;;;;;;;15.33;76.49;99666.09;1797703;77;20954;-75
2021/07/25 01:15:19;;;;;;;6.20;2.47;;;;;;;15.34;76.42;99665.13;1795343;78;21268;-75
2021/07/25 01:17:46;;;;;;;6.55;3.40;;;;;;;15.33;76.43;99663.45;1794746;78;20989;-74
2021/07/25 01:20:14;;;;;;;5.03;2.83;;;;;;;15.30;76.47;99659.72;1796090;78;22284;-74
2021/07/25 01:22:48;;;;;;;5.37;2.77;;;;;;;15.29;76.48;99659.36;1800050;77;21048;-75
2021/07/25 01:25:17;;;;;;;4.70;2.50;;;;;;;15.26;76.46;99659.55;1798480;78;21041;-74
2021/07/25 01:27:52;;;;;;;3.98;2.47;;;;;;;15.22;76.51;99653.66;1802944;78;20963;-75
2021/07/25 01:30:23;;;;;;;4.75;2.72;;;;;;;15.22;76.59;99650.19;1799039;77;20985;-75
2021/07/25 01:32:56;;;;;;;7.30;2.55;;;;;;;15.24;76.64;99652.73;1780681;78;21111;-76
2021/07/25 01:36:57;;;;;;;3.12;2.45;;;;;;;15.30;76.87;99647.05;1857358;75;22467;-75
2021/07/25 01:39:29;;;;;;;3.00;2.40;;;;;;;15.22;76.69;99651.02;1827226;77;20958;-76
2021/07/25 01:41:55;;;;;;;5.28;2.70;;;;;;;15.17;76.69;99645.70;1832965;77;21072;-77
2021/07/25 01:44:22;;;;;;;6.30;2.80;;;;;;;15.12;76.71;99643.85;1832154;77;20930;-77
2021/07/25 01:46:49;;;;;;;3.47;2.83;;;;;;;15.06;76.81;99643.79;1836538;77;21013;-76
2021/07/25 01:49:15;;;;;;;3.90;2.37;;;;;;;15.03;76.85;99647.94;1801119;77;20890;-77
2021/07/25 01:51:42;;;;;;;5.07;2.97;;;;;;;15.03;76.98;99641.85;1828120;77;21376;-77
2021/07/25 01:54:08;;;;;;;5.23;3.23;;;;;;;15.03;77.00;99642.69;1834352;77;21462;-77
2021/07/25 01:56:35;;;;;;;4.33;2.63;;;;;;;15.04;77.10;99638.27;1833492;76;20966;-77
2021/07/25 01:59:01;;;;;;;3.72;2.92;;;;;;;15.03;77.07;99637.43;1833287;77;20989;-77
2021/07/25 02:01:28;;;;;;;6.08;3.00;;;;;;;15.03;77.08;99644.48;1835004;77;21366;-76
2021/07/25 02:03:55;;;;;;;4.07;2.43;;;;;;;15.02;77.01;99644.13;1836556;77;21033;-71
2021/07/25 02:06:22;;;;;;;4.75;2.17;;;;;;;15.00;77.21;99633.21;1828577;77;21468;-77
2021/07/25 02:08:49;;;;;;;2.87;2.30;;;;;;;14.99;77.14;99631.55;1802978;77;21175;-77
2021/07/25 02:11:16;;;;;;;4.23;2.40;;;;;;;15.02;77.21;99634.92;1826420;77;20983;-77
2021/07/25 02:13:42;;;;;;;2.80;2.27;;;;;;;15.03;77.27;99634.80;1830205;77;20942;-77
2021/07/25 02:16:09;;;;;;;4.13;1.70;;;;;;;15.05;77.31;99637.34;1834352;77;21002;-77
2021/07/25 02:18:36;;;;;;;3.35;2.08;;;;;;;15.07;77.33;99638.05;1830969;77;21472;-77
2021/07/25 02:21:02;;;;;;;4.22;2.12;;;;;;;15.07;77.37;99638.92;1838096;77;20981;-76
2021/07/25 02:23:29;;;;;;;3.55;2.40;;;;;;;15.07;77.35;99640.69;1831066;77;21038;-77
2021/07/25 02:25:55;;;;;;;4.30;2.70;;;;;;;15.04;77.29;99644.84;1771699;79;20982;-77
2021/07/25 02:28:22;;;;;;;3.67;2.27;;;;;;;14.98;77.29;99644.33;1773003;79;20986;-77
2021/07/25 02:30:48;;;;;;;3.73;2.80;;;;;;;14.92;77.37;99643.39;1797186;79;21967;-77
2021/07/25 02:33:15;;;;;;;6.10;2.63;;;;;;;14.90;77.46;99637.87;1769001;79;21664;-76
2021/07/25 02:35:42;;;;;;;6.50;3.07;;;;;;;14.89;77.64;99646.23;1770588;79;21203;-76
2021/07/25 02:38:08;;;;;;;6.00;3.33;;;;;;;14.89;77.69;99643.60;1782375;78;20998;-78
2021/07/25 02:40:35;;;;;;;4.27;1.90;;;;;;;14.88;77.70;99641.93;1775164;80;21070;-77
2021/07/25 02:43:02;;;;;;;1.37;1.27;;;;;;;14.90;77.79;99634.80;1768689;80;22282;-77
2021/07/25 02:45:28;;;;;;;2.37;1.50;;;;;;;14.94;77.78;99630.16;1770044;78;21037;-78
2021/07/25 02:47:55;;;;;;;4.12;1.70;;;;;;;15.00;77.89;99622.70;1767668;78;20966;-77
2021/07/25 02:50:22;;;;;;;3.33;1.47;;;;;;;15.10;78.02;99610.27;1770826;79;21004;-77
2021/07/25 02:52:49;;;;;;;2.80;1.62;;;;;;;15.19;78.00;99613.58;1772082;79;21070;-77
2021/07/25 02:55:16;;;;;;;3.77;1.70;;;;;;;15.26;78.03;99618.77;1769887;79;21472;-77
2021/07/25 02:57:42;;;;;;;3.40;1.85;;;;;;;15.34;78.09;99619.57;1768002;79;21012;-77
2021/07/25 03:00:11;;;;;;;3.40;2.17;;;;;;;15.40;78.06;99618.70;1772855;79;20982;-77
2021/07/25 03:02:38;;;;;;;2.70;1.85;;;;;;;15.45;78.06;99621.83;1796490;78;20940;-77
2021/07/25 03:05:06;;;;;;;4.23;1.90;;;;;;;15.51;78.11;99618.41;1775782;79;21042;-77
2021/07/25 03:07:32;;;;;;;2.65;1.50;;;;;;;15.56;78.08;99614.51;1776586;80;21210;-77
2021/07/25 03:09:59;;;;;;;2.87;1.67;;;;;;;15.61;78.07;99603.67;1794490;78;20963;-77
2021/07/25 03:12:26;;;;;;;2.67;2.00;;;;;;;15.65;78.08;99609.08;1767062;79;20933;-78
2021/07/25 03:14:52;;;;;;;3.15;1.90;;;;;;;15.68;78.12;99608.89;1735185;78;21277;-77
2021/07/25 03:17:19;;;;;;;3.47;2.00;;;;;;;15.82;78.27;99608.78;1759122;78;20964;-76
2021/07/25 03:19:47;;;;;;;5.95;2.22;;;;;;;16.17;78.32;99601.45;1796317;78;21471;-78
2021/07/25 03:22:13;;;;;;;6.92;2.40;;;;;;;16.56;78.14;99604.77;1794170;78;21596;-78
2021/07/25 03:24:40;;;;;;;4.03;1.80;;;;;;;16.98;77.98;99607.82;1793407;78;21495;-78
2021/07/25 03:27:06;;;;;;;4.33;1.98;;;;;;;17.41;77.76;99601.88;1795225;78;21617;-78
2021/07/25 03:29:33;;;;;;;2.70;1.77;;;;;;;17.91;77.60;99606.83;1796383;78;20985;-77
2021/07/25 03:32:00;;;;;;;2.90;1.80;;;;;;;18.43;77.54;99610.54;1793098;78;21479;-77
2021/07/25 03:34:31;;;;;;;5.13;1.83;;;;;;;18.90;77.10;99606.64;1772681;79;21683;-76
2021/07/25 03:36:55;;;;;;;3.27;2.02;;;;;;;19.38;76.97;99600.83;1777567;78;21566;-78
2021/07/25 03:39:23;;;;;;;6.10;2.35;;;;;;;19.90;77.03;99601.61;1772348;78;20966;-77
2021/07/25 03:41:50;;;;;;;3.60;1.27;;;;;;;20.35;76.65;99600.30;1760139;80;21568;-78
2021/07/25 03:44:17;;;;;;;4.40;1.25;;;;;;;20.74;76.29;99595.88;1798122;78;22022;-78
2021/07/25 03:46:44;;;;;;;2.47;1.50;;;;;;;20.93;76.00;99602.16;1800102;78;22572;-77
2021/07/25 03:49:11;;;;;;;3.33;1.40;;;;;;;21.21;75.95;99591.96;1793040;78;21423;-78
2021/07/25 03:51:42;;;;;;;2.85;1.60;;;;;;;21.58;75.83;99597.81;1794913;78;21547;-77
2021/07/25 03:54:09;;;;;;;3.58;1.20;;;;;;;21.89;75.27;99600.19;1794723;78;22626;-77
2021/07/25 03:56:35;;;;;;;5.40;1.55;;;;;;;22.13;75.07;99603.13;1797728;78;21106;-77
2021/07/25 03:59:03;;;;;;;2.00;1.15;;;;;;;22.51;74.83;99595.88;1794379;78;20997;-78
2021/07/25 04:01:30;;;;;;;4.47;1.32;;;;;;;22.89;74.35;99593.88;1796461;78;20975;-78
2021/07/25 04:03:56;;;;;;;4.15;1.37;;;;;;;23.22;73.96;99594.16;1795904;78;20964;-77
2021/07/25 04:06:23;;;;;;;4.78;1.70;;;;;;;23.43;73.47;99589.27;1796736;78;21044;-78
2021/07/25 04:08:49;;;;;;;2.42;1.40;;;;;;;23.65;72.98;99585.72;1792410;78;21264;-78
2021/07/25 04:11:20;;;;;;;5.25;1.22;;;;;;;23.78;72.65;99586.61;1761942;78;21489;-78
2021/07/25 04:13:48;;;;;;;3.05;1.45;;;;;;;24.02;72.28;99588.55;1796678;78;20965;-78
2021/07/25 04:16:16;;;;;;;2.70;1.50;;;;;;;24.35;72.22;99590.28;1775826;80;21585;-78
2021/07/25 04:18:42;;;;;;;1.85;1.10;;;;;;;24.85;71.70;99590.36;1768438;78;20890;-78
2021/07/25 04:21:09;;;;;;;2.98;1.67;;;;;;;25.27;71.34;99593.34;1768191;78;21111;-78
2021/07/25 04:23:40;;;;;;;4.97;1.27;;;;;;;25.79;70.94;99594.16;1779213;79;20990;-73
2021/07/25 04:26:08;;;;;;;4.08;1.72;;;;;;;26.18;69.99;99596.00;1779697;79;20997;-78
2021/07/25 04:28:35;;;;;;;14.23;1.50;;;;;;;26.48;69.89;99596.47;1778863;79;21057;-77
2021/07/25 04:31:03;;;;;;;2.98;1.32;;;;;;;26.98;69.41;99598.28;1796243;78;21061;-77
2021/07/25 04:33:31;;;;;;;3.42;1.50;;;;;;;27.23;68.37;99596.23;1779588;80;21138;-75
2021/07/25 04:35:58;;;;;;;3.08;1.47;;;;;;;27.49;68.14;99586.91;1784705;78;20998;-74
2021/07/25 04:38:26;;;;;;;2.27;1.35;;;;;;;27.75;67.16;99587.24;1790342;78;21117;-77
2021/07/25 04:41:01;;;;;;;3.67;1.42;;;;;;;27.97;66.90;99584.66;1811684;78;20958;-77
2021/07/25 04:43:30;;;;;;;2.35;1.40;;;;;;;28.05;66.41;99589.92;1790839;78;20986;-77
2021/07/25 04:46:17;;;;;;;2.12;1.20;;;;;;;28.27;66.06;99591.61;1803264;78;21103;-76
2021/07/25 04:49:04;;;;;;;1.80;1.15;;;;;;;28.22;64.89;99585.15;1808117;78;21018;-76
2021/07/25 04:51:31;;;;;;;5.10;1.37;;;;;;;28.34;64.68;99591.19;1804331;78;21091;-78
2021/07/25 04:54:11;;;;;;;4.25;1.37;;;;;;;28.43;64.06;99581.66;1793004;79;20939;-78
2021/07/25 04:56:59;;;;;;;3.58;1.05;;;;;;;28.68;63.81;99582.95;1770757;80;20974;-77
2021/07/25 04:59:33;;;;;;;4.92;1.10;;;;;;;28.86;62.90;99581.14;1771154;80;21591;-78
2021/07/25 05:02:05;;;;;;;2.87;1.40;;;;;;;28.96;61.93;99576.75;1807621;78;21069;-77
2021/07/25 05:04:33;;;;;;;2.35;1.25;;;;;;;28.77;61.41;99581.79;1805710;78;21072;-76
2021/07/25 05:07:00;;;;;;;3.62;1.60;;;;;;;28.73;60.94;99579.67;1773064;80;21040;-77
2021/07/25 05:09:28;;;;;;;2.83;1.20;;;;;;;28.88;60.76;99579.61;1803565;78;20985;-77
2021/07/25 05:12:11;;;;;;;4.12;1.70;;;;;;;29.07;60.18;99583.48;1787373;78;22483;-78
2021/07/25 05:14:59;;;;;;;3.08;1.37;;;;;;;29.27;59.59;99586.30;1804207;78;21038;-78
2021/07/25 05:17:51;;;;;;;5.45;1.62;;;;;;;29.17;58.90;99584.80;1785629;78;21628;-78
2021/07/25 05:20:19;;;;;;;2.70;1.25;;;;;;;29.31;58.66;99580.87;1801113;78;21006;-78
2021/07/25 05:23:33;;;;;;;4.12;1.35;;;;;;;29.36;57.73;99583.28;1808780;78;21063;-77
2021/07/25 05:26:00;;;;;;;2.35;1.25;;;;;;;29.25;56.93;99591.07;1808935;78;21185;-76
2021/07/25 05:28:29;;;;;;;3.15;1.40;;;;;;;29.30;56.65;99589.97;1772626;80;20977;-77
2021/07/25 05:30:57;;;;;;;3.27;1.70;;;;;;;29.25;56.23;99596.45;1805318;78;20925;-73
2021/07/25 05:33:24;;;;;;;2.62;1.60;;;;;;;29.28;56.17;99593.36;1798868;78;20990;-74
2021/07/25 05:35:51;;;;;;;3.47;1.70;;;;;;;29.16;54.91;99596.59;1802371;78;20993;-74
2021/07/25 05:38:18;;;;;;;8.63;1.57;;;;;;;28.84;54.55;99595.27;1795278;78;21855;-74
2021/07/25 05:40:45;;;;;;;7.10;2.02;;;;;;;28.60;54.09;99591.16;1793017;78;21021;-74
2021/07/25 05:43:12;;;;;;;3.20;1.70;;;;;;;28.50;54.09;99598.69;1781836;79;21030;-73
2021/07/25 05:45:39;;;;;;;6.15;1.85;;;;;;;28.63;53.76;99594.80;1761576;80;21569;-73
2021/07/25 05:48:06;;;;;;;4.55;1.80;;;;;;;28.44;53.71;99591.41;1792324;78;21503;-75
2021/07/25 05:50:33;;;;;;;3.15;1.65;;;;;;;28.60;53.75;99591.67;1766238;78;21531;-74
2021/07/25 05:53:01;;;;;;;3.05;1.75;;;;;;;28.84;53.12;99588.55;1772526;78;21021;-74
2021/07/25 05:55:33;;;;;;;5.90;1.80;;;;;;;28.75;52.66;99593.75;1776525;79;21105;-74
2021/07/25 05:58:01;;;;;;;3.85;1.50;;;;;;;28.60;52.52;99596.52;1781464;79;21079;-73
2021/07/25 06:00:27;;;;;;;6.05;1.65;;;;;;;28.65;52.42;99593.23;1780612;79;21597;-74
2021/07/25 06:03:02;;;;;;;4.87;1.92;;;;;;;28.65;52.05;99590.06;1791247;79;21630;-73
2021/07/25 06:05:35;;;;;;;5.60;1.70;;;;;;;28.62;52.15;99587.73;1770852;79;21084;-75
2021/07/25 06:08:08;;;;;;;2.35;1.55;;;;;;;28.89;51.88;99589.33;1769003;79;21665;-74
2021/07/25 06:10:41;;;;;;;3.20;1.57;;;;;;;29.11;51.79;99588.28;1768169;79;20990;-74
2021/07/25 06:13:08;;;;;;;2.67;1.60;;;;;;;29.41;51.80;99588.08;1793730;79;20959;-74
2021/07/25 06:15:36;;;;;;;5.47;1.95;;;;;;;29.60;51.35;99594.57;1775282;79;21451;-76
2021/07/25 06:18:05;;;;;;;4.40;1.87;;;;;;;29.74;51.13;99592.81;1776717;79;20983;-75
2021/07/25 06:20:32;;;;;;;2.75;1.90;;;;;;;29.77;50.74;99593.26;1778000;79;21565;-71
2021/07/25 06:23:00;;;;;;;3.72;1.70;;;;;;;29.85;50.46;99586.85;1775382;79;21287;-75
2021/07/25 06:25:31;;;;;;;4.20;1.67;;;;;;;29.93;50.28;99592.06;1748838;79;21003;-74
2021/07/25 06:28:00;;;;;;;3.90;1.90;;;;;;;29.97;50.08;99593.34;1773060;79;21919;-74
2021/07/25 06:30:27;;;;;;;4.45;2.35;;;;;;;29.80;49.43;99601.42;1794617;78;20989;-75
2021/07/25 06:33:09;;;;;;;4.97;2.02;;;;;;;29.80;49.36;99597.38;1777551;80;21026;-74
2021/07/25 06:35:39;;;;;;;4.62;2.00;;;;;;;29.62;48.68;99596.03;1774015;79;21041;-74
2021/07/25 06:38:14;;;;;;;5.55;1.98;;;;;;;29.31;48.37;99594.31;1772592;79;21544;-74
2021/07/25 06:40:45;;;;;;;5.40;2.62;;;;;;;29.07;48.59;99589.69;1769523;79;21289;-74
2021/07/25 06:43:11;;;;;;;6.50;2.25;;;;;;;29.10;48.49;99586.63;1770808;79;21492;-75
2021/07/25 06:45:38;;;;;;;3.27;2.12;;;;;;;29.13;48.44;99590.79;1775003;80;21527;-75
2021/07/25 06:48:20;;;;;;;6.33;1.98;;;;;;;29.31;48.24;99592.97;1774884;80;20981;-74
2021/07/25 06:50:54;;;;;;;73.90;5.75;;;;;;;29.31;48.09;99590.28;1766594;80;20981;-74
2021/07/25 06:53:23;;;;;;;4.95;2.40;;;;;;;29.35;48.19;99591.53;1771072;79;20954;-73
2021/07/25 06:55:51;;;;;;;3.30;2.02;;;;;;;29.37;47.99;99590.30;1772592;79;21645;-74
2021/07/25 06:58:18;;;;;;;4.62;2.40;;;;;;;29.52;47.87;99592.04;1773739;79;20950;-75
2021/07/25 07:00:45;;;;;;;5.58;2.45;;;;;;;29.64;47.81;99591.33;1774069;79;20999;-75
2021/07/25 07:03:11;;;;;;;8.70;2.67;;;;;;;29.75;47.59;99589.11;1775623;79;21025;-76
2021/07/25 07:05:38;;;;;;;3.60;2.22;;;;;;;29.48;47.05;99588.09;1775370;79;22255;-73
2021/07/25 07:08:07;;;;;;;4.53;2.37;;;;;;;29.15;47.12;99588.19;1775025;79;22308;-73
2021/07/25 07:10:37;;;;;;;7.35;2.62;;;;;;;29.20;47.11;99580.89;1778796;78;20970;-75
2021/07/25 07:13:07;;;;;;;4.80;2.30;;;;;;;29.10;46.61;99587.98;1779539;79;21038;-75
2021/07/25 07:15:35;;;;;;;4.75;2.50;;;;;;;29.02;46.83;99586.75;1778824;80;21452;-73
2021/07/25 07:18:03;;;;;;;7.97;2.65;;;;;;;29.11;47.01;99588.80;1775185;80;21187;-74
2021/07/25 07:20:30;;;;;;;6.37;2.47;;;;;;;29.22;46.91;99591.77;1773012;79;21046;-76
2021/07/25 07:23:08;;;;;;;6.65;2.47;;;;;;;29.33;46.54;99588.23;1778045;79;20946;-75
2021/07/25 07:25:44;;;;;;;10.95;2.40;;;;;;;29.31;46.54;99583.55;1777170;80;20974;-75
2021/07/25 07:28:12;;;;;;;8.40;2.42;;;;;;;29.07;46.20;99580.28;1776419;78;20982;-76
2021/07/25 07:30:41;;;;;;;4.60;2.60;;;;;;;28.94;46.74;99586.38;1774412;79;21131;-74
2021/07/25 07:33:11;;;;;;;4.80;2.90;;;;;;;28.93;46.66;99582.52;1773199;79;21013;-75
2021/07/25 07:35:39;;;;;;;8.73;3.02;;;;;;;28.75;46.18;99583.83;1778640;79;20974;-74
2021/07/25 07:38:08;;;;;;;8.10;2.62;;;;;;;28.43;46.50;99580.31;1767680;79;21528;-75
2021/07/25 07:40:36;;;;;;;8.45;3.17;;;;;;;28.09;46.48;99577.77;1758537;79;21603;-75
2021/07/25 07:43:06;;;;;;;10.08;2.65;;;;;;;27.94;46.46;99574.30;1731341;80;23847;-76
2021/07/25 07:45:34;;;;;;;9.60;3.20;;;;;;;27.62;46.60;99579.05;1757532;79;21127;-75
2021/07/25 07:48:01;;;;;;;6.60;3.47;;;;;;;27.35;46.80;99578.67;1756486;79;21021;-76
2021/07/25 07:50:28;;;;;;;8.13;2.90;;;;;;;27.25;47.06;99571.40;1758426;79;20981;-77
2021/07/25 07:52:55;;;;;;;3.80;2.77;;;;;;;27.29;47.24;99573.23;1757613;79;21029;-73
2021/07/25 07:55:21;;;;;;;;;;;;;;;27.21;47.34;99568.78;1757524;79;21537;-74
2021/07/25 07:57:48;;;;;;;9.20;3.67;;;;;;;27.22;47.27;99560.56;1764407;79;20286;-71
2021/07/25 08:00:15;;;;;;;4.95;3.40;;;;;;;27.15;47.36;99569.48;1759619;79;21068;-76
2021/07/25 08:02:43;;;;;;;8.05;3.00;;;;;;;26.91;47.19;99574.05;1757488;80;21036;-76
2021/07/25 08:05:11;;;;;;;5.33;3.42;;;;;;;26.83;47.79;99570.13;1758087;80;20998;-76
2021/07/25 08:07:38;;;;;;;4.45;3.60;;;;;;;26.87;47.85;99571.42;1759497;79;21159;-73
2021/07/25 08:10:07;;;;;;;5.25;3.65;;;;;;;27.01;47.79;99579.99;1758604;79;21630;-76
2021/07/25 08:12:34;;;;;;;6.03;2.92;;;;;;;26.95;47.78;99575.37;1759021;79;21579;-74
2021/07/25 08:15:03;;;;;;;4.58;3.08;;;;;;;26.77;47.73;99566.81;1758180;79;21077;-75
2021/07/25 08:17:32;;;;;;;6.03;3.52;;;;;;;26.75;47.82;99571.03;1732699;80;21638;-75
2021/07/25 08:20:00;;;;;;;4.58;3.83;;;;;;;26.69;47.64;99572.23;1757947;79;21307;-73
2021/07/25 08:22:28;;;;;;;5.67;3.50;;;;;;;26.62;47.77;99568.63;1755818;79;21552;-74
2021/07/25 08:24:55;;;;;;;6.00;3.40;;;;;;;26.61;47.65;99577.66;1760019;79;21060;-74
2021/07/25 08:27:22;;;;;;;7.28;3.40;;;;;;;26.61;47.69;99572.30;1754457;80;21136;-75
2021/07/25 08:29:49;;;;;;;11.93;3.80;;;;;;;26.55;47.53;99574.72;1756032;79;21009;-75
2021/07/25 08:32:15;;;;;;;6.05;3.40;;;;;;;26.43;47.76;99572.08;1759598;79;21057;-75
2021/07/25 08:34:42;;;;;;;5.87;3.70;;;;;;;26.32;47.62;99565.80;1755326;80;20971;-74
2021/07/25 08:37:09;;;;;;;;;;;;;;;26.38;47.69;99567.76;1764798;79;22955;-74
2021/07/25 08:39:36;;;;;;;7.20;4.20;;;;;;;26.41;47.66;99566.57;1801564;77;20179;-74
2021/07/25 08:42:11;;;;;;;8.83;4.22;;;;;;;26.35;47.05;99562.77;1777248;78;20982;-76
2021/07/25 08:44:54;;;;;;;9.00;3.92;;;;;;;26.32;47.46;99568.48;1802950;77;20979;-76
2021/07/25 08:47:29;;;;;;;7.40;3.75;;;;;;;26.29;47.16;99568.84;1776148;80;20982;-75
2021/07/25 08:50:01;;;;;;;7.87;4.25;;;;;;;26.29;47.18;99574.19;1779592;79;21549;-73
2021/07/25 08:52:31;;;;;;;9.25;4.42;;;;;;;26.31;47.19;99572.17;1752398;79;20989;-74
2021/07/25 08:55:02;;;;;;;8.93;3.98;;;;;;;26.42;46.75;99569.09;1785820;79;21721;-75
2021/07/25 08:57:33;;;;;;;5.55;4.35;;;;;;;26.49;46.99;99557.97;1802699;78;21051;-71
2021/07/25 09:00:00;;;;;;;11.80;4.10;;;;;;;26.48;46.61;99576.39;1781964;79;21575;-75
2021/07/25 09:02:30;;;;;;;6.45;3.65;;;;;;;26.51;46.95;99569.38;1801062;78;20973;-75
2021/07/25 09:04:59;;;;;;;13.93;4.60;;;;;;;26.75;46.89;99574.22;1799152;78;21007;-74
2021/07/25 09:07:29;;;;;;;9.88;3.77;;;;;;;26.72;46.33;99563.84;1800646;78;21107;-74
2021/07/25 09:10:02;;;;;;;8.00;4.08;;;;;;;26.54;45.69;99561.49;1801047;78;21501;-73
2021/07/25 09:12:37;;;;;;;5.10;3.95;;;;;;;26.47;45.91;99569.39;1801234;78;20969;-73
2021/07/25 09:15:07;;;;;;;5.20;4.30;;;;;;;26.44;45.69;99564.88;1802510;77;21008;-74
2021/07/25 09:17:35;;;;;;;11.28;4.70;;;;;;;26.37;45.55;99566.11;1805457;78;20946;-75
2021/07/25 09:20:22;;;;;;;9.58;4.17;;;;;;;26.32;45.21;99565.80;1811745;78;21508;-74
2021/07/25 09:22:54;;;;;;;6.83;4.03;;;;;;;26.30;45.48;99569.19;1777339;80;21051;-75
2021/07/25 09:25:27;;;;;;;10.05;4.33;;;;;;;26.45;45.51;99556.67;1803877;78;20962;-73
2021/07/25 09:28:05;;;;;;;11.93;4.90;;;;;;;26.49;45.41;99556.63;1802436;78;21009;-74
2021/07/25 09:30:32;;;;;;;7.28;4.37;;;;;;;26.47;45.19;99564.55;1779130;78;20997;-73
2021/07/25 09:33:25;;;;;;;7.10;3.98;;;;;;;26.46;45.48;99561.01;1779597;80;21575;-73
2021/07/25 09:35:53;;;;;;;8.35;4.37;;;;;;;26.59;45.73;99561.79;1762025;79;21286;-75
2021/07/25 09:38:24;;;;;;;5.35;4.00;;;;;;;26.47;45.09;99566.71;1777943;79;22303;-74
2021/07/25 09:40:56;;;;;;;7.15;4.03;;;;;;;26.46;45.27;99572.23;1792967;79;20966;-73
2021/07/25 09:43:24;;;;;;;8.53;4.17;;;;;;;26.40;45.16;99563.58;1775812;79;20986;-73
2021/07/25 09:45:55;;;;;;;4.10;3.67;;;;;;;26.27;45.45;99560.14;1770196;79;21280;-74
2021/07/25 09:48:29;;;;;;;11.18;4.70;;;;;;;26.27;45.59;99553.45;1774496;79;21868;-75
2021/07/25 09:50:59;;;;;;;7.00;3.62;;;;;;;26.27;45.92;99554.79;1775275;79;20957;-75
2021/07/25 09:53:47;;;;;;;5.10;4.17;;;;;;;26.39;45.92;99561.41;1773934;80;21041;-75
2021/07/25 09:56:23;;;;;;;6.10;3.70;;;;;;;26.52;46.25;99560.34;1776860;80;21058;-75
2021/07/25 09:58:50;;;;;;;11.03;4.67;;;;;;;26.64;46.31;99555.39;1745616;79;21033;-75
2021/07/25 10:01:42;;;;;;;8.83;4.50;;;;;;;26.75;46.01;99555.48;1777729;79;21081;-75
2021/07/25 10:04:19;;;;;;;6.92;4.15;;;;;;;26.78;45.61;99567.16;1772756;79;21005;-75
2021/07/25 10:06:51;;;;;;;11.33;4.10;;;;;;;26.55;45.54;99551.95;1766248;79;21591;-75
2021/07/25 10:09:24;;;;;;;7.20;3.90;;;;;;;26.61;45.55;99556.23;1770128;79;21610;-71
2021/07/25 10:12:03;;;;;;;9.55;4.03;;;;;;;26.59;45.15;99550.25;1773393;80;21604;-76
2021/07/25 10:14:33;;;;;;;6.47;4.10;;;;;;;26.52;44.87;99559.02;1771048;79;21166;-76
2021/07/25 10:17:02;;;;;;;10.53;4.37;;;;;;;26.50;44.83;99575.75;1775500;79;21619;-75
2021/07/25 10:19:39;;;;;;;9.45;4.20;;;;;;;26.46;44.80;99546.80;1773105;79;21133;-74
2021/07/25 10:22:13;;;;;;;7.70;4.00;;;;;;;26.44;44.93;99556.36;1778557;79;21563;-76
2021/07/25 10:24:49;;;;;;;7.45;4.20;;;;;;;26.49;44.97;99552.62;1774593;79;22262;-75
2021/07/25 10:27:17;;;;;;;6.78;5.03;;;;;;;26.62;44.64;99565.95;1773217;79;21134;-76
2021/07/25 10:29:45;;;;;;;9.13;4.70;;;;;;;26.54;44.64;99548.94;1771838;79;21005;-74
2021/07/25 10:32:12;;;;;;;7.67;4.33;;;;;;;26.55;44.81;99538.56;1777818;79;21049;-74
2021/07/25 10:34:40;;;;;;;8.68;4.37;;;;;;;26.31;44.69;99556.94;1773625;78;20985;-76
2021/07/25 10:37:12;;;;;;;6.75;4.10;;;;;;;26.42;45.10;99554.36;1770443;78;21194;-74
2021/07/25 10:39:48;;;;;;;8.70;4.10;;;;;;;26.59;45.19;99543.56;1764169;80;21476;-75
2021/07/25 10:42:29;;;;;;;5.62;4.05;;;;;;;26.46;45.09;99540.10;1736035;79;20926;-75
2021/07/25 10:44:57;;;;;;;4.90;3.87;;;;;;;26.41;45.42;99544.68;1757566;80;20903;-74
2021/07/25 10:47:28;;;;;;;5.70;3.65;;;;;;;26.52;45.51;99540.27;1761502;80;21317;-74
2021/07/25 10:50:10;;;;;;;5.17;4.67;;;;;;;26.59;45.35;99540.88;1757627;80;21047;-73
2021/07/25 10:52:55;;;;;;;7.45;4.12;;;;;;;26.62;45.65;99540.52;1758282;80;22412;-73
2021/07/25 10:55:44;;;;;;;9.90;4.35;;;;;;;26.64;45.30;99549.21;1760352;79;21041;-74
2021/07/25 10:58:22;;;;;;;7.05;4.47;;;;;;;26.50;45.59;99544.96;1762222;80;20982;-74
2021/07/25 11:00:52;;;;;;;7.08;3.98;;;;;;;26.64;45.73;99542.52;1759717;79;22297;-74
2021/07/25 11:03:35;;;;;;;7.67;4.42;;;;;;;26.52;45.69;99537.59;1761654;79;21022;-73
2021/07/25 11:06:11;;;;;;;14.00;5.20;;;;;;;26.51;46.06;99540.44;1759205;79;21474;-72
2021/07/25 11:08:45;;;;;;;5.87;3.95;;;;;;;26.58;46.30;99532.50;1758281;79;21583;-75
2021/07/25 11:11:35;;;;;;;6.83;4.72;;;;;;;26.65;46.20;99534.80;1756592;80;21033;-75
2021/07/25 11:14:05;;;;;;;10.35;4.15;;;;;;;26.54;46.11;99539.56;1756525;79;21128;-76
2021/07/25 11:16:38;;;;;;;6.20;4.55;;;;;;;26.55;46.26;99549.28;1763228;80;21543;-76
2021/07/25 11:19:11;;;;;;;5.25;3.70;;;;;;;26.54;46.10;99523.50;1760759;80;21139;-76
2021/07/25 11:21:41;;;;;;;5.03;4.17;;;;;;;26.40;46.21;99526.94;1762797;79;21044;-75
2021/07/25 11:24:26;;;;;;;12.18;4.50;;;;;;;26.29;46.33;99526.02;1757854;80;20965;-76
2021/07/25 11:26:59;;;;;;;6.65;4.70;;;;;;;26.36;46.62;99528.31;1760051;80;21100;-74
2021/07/25 11:29:37;;;;;;;7.97;4.28;;;;;;;26.51;46.94;99522.52;1762700;80;21496;-75
2021/07/25 11:32:25;;;;;;;11.00;4.70;;;;;;;26.64;47.08;99525.11;1759576;80;21113;-74
2021/07/25 11:35:07;;;;;;;6.08;4.30;;;;;;;26.84;47.32;99522.23;1772139;80;21620;-74
2021/07/25 11:37:38;;;;;;;10.65;4.78;;;;;;;26.93;47.30;99521.64;1777588;80;20933;-74
2021/07/25 11:40:07;;;;;;;8.05;4.78;;;;;;;26.70;47.00;99511.81;1792859;78;21021;-75
2021/07/25 11:42:36;;;;;;;8.88;4.87;;;;;;;26.65;47.28;99510.19;1776238;80;21002;-77
2021/07/25 11:45:07;;;;;;;8.55;5.10;;;;;;;26.66;47.29;99515.03;1771713;78;21074;-75
2021/07/25 11:47:34;;;;;;;6.67;4.80;;;;;;;26.56;47.18;99521.48;1768380;78;21026;-72
2021/07/25 11:50:01;;;;;;;5.37;4.15;;;;;;;26.65;47.36;99522.75;1800202;78;21610;-75
2021/07/25 11:52:28;;;;;;;5.05;4.45;;;;;;;26.75;47.30;99522.00;1771636;80;21034;-74